Zandhoven, Belgium
Current Conditions -  °F | °C
As of 6:50 PM on Sunday 21 Dec 2014 (Local Time) from EBAW Reporting Station
Light Rain Light Rain  
Wind Chill: 41°   Ceiling: 600
Heat Index: 46°   Visibility: 2.8mi
Dew Point: 45°   Wind: 13mph
Humidity: 93%   Direction: 230°SW
Pressure: 30.27"   Gusts: NA
Location:  51.21°N, 4.66°E
Report Text: EBAW 211750Z 23011KT 4500 -RADZ BKN006 08/07 Q1025 TEMPO 2800 RADZ BKN008
Loading
Personal Weather Stations






























Interactive Weather Map New forecast layout! Learn more

10-Day Weather Forecast

Advertisements
Track Severe Weather on mobile